createdAt,value
2022-08-01T00:00:46.309Z,100218.38
2022-08-01T00:03:50.904Z,100215.16
2022-08-01T00:06:54.847Z,100206.53
2022-08-01T00:09:58.830Z,100200.03
2022-08-01T00:13:02.798Z,100216.09
2022-08-01T00:16:06.760Z,100219.78
2022-08-01T00:19:10.695Z,100216.59
2022-08-01T00:22:14.545Z,100219.31
2022-08-01T00:25:18.872Z,100215.19
2022-08-01T00:28:23.107Z,100212.03
2022-08-01T00:31:27.139Z,100214.22
2022-08-01T00:34:30.894Z,100211.84
2022-08-01T00:37:34.814Z,100212.63
2022-08-01T00:40:39.389Z,100217.53
2022-08-01T00:43:43.295Z,100223.09
2022-08-01T00:46:47.446Z,100220.56
2022-08-01T00:49:56.849Z,100212.81
2022-08-01T00:53:01.707Z,100208.50
2022-08-01T00:56:06.171Z,100208.28
2022-08-01T00:59:11.060Z,100197.34
2022-08-01T01:02:15.930Z,100190.47
2022-08-01T01:05:20.286Z,100196.84
2022-08-01T01:08:32.441Z,100190.53
2022-08-01T01:11:43.341Z,100183.84
2022-08-01T01:14:53.739Z,100194.50
2022-08-01T01:18:04.415Z,100192.78
2022-08-01T01:21:11.728Z,100198.81
2022-08-01T01:24:34.313Z,100191.06
2022-08-01T01:27:51.904Z,100185.25
2022-08-01T01:30:57.530Z,100179.81
2022-08-01T01:34:02.741Z,100166.97
2022-08-01T01:37:08.658Z,100180.44
2022-08-01T01:40:13.494Z,100173.06
2022-08-01T01:43:18.714Z,100164.16
2022-08-01T01:46:25.000Z,100159.25
2022-08-01T01:49:30.367Z,100157.22
2022-08-01T01:52:35.279Z,100163.44
2022-08-01T01:55:49.265Z,100161.34
2022-08-01T01:58:56.004Z,100159.06
2022-08-01T02:02:08.963Z,100150.13
2022-08-01T02:05:13.671Z,100148.56
2022-08-01T02:08:18.704Z,100151.69
2022-08-01T02:11:24.049Z,100148.84
2022-08-01T02:14:31.133Z,100139.78
2022-08-01T02:17:40.183Z,100143.09
2022-08-01T02:20:44.133Z,100140.69
2022-08-01T02:23:49.145Z,100124.72
2022-08-01T02:26:56.592Z,100134.91
2022-08-01T02:30:06.460Z,100124.31
2022-08-01T02:33:22.877Z,100120.25
2022-08-01T02:36:31.979Z,100122.91
2022-08-01T02:39:38.690Z,100115.59
2022-08-01T02:42:46.025Z,100115.09
2022-08-01T02:45:52.046Z,100121.19
2022-08-01T02:48:58.847Z,100122.94
2022-08-01T02:52:06.530Z,100109.84
2022-08-01T02:55:11.718Z,100106.28
2022-08-01T02:58:17.799Z,100116.25
2022-08-01T03:01:23.519Z,100107.94
2022-08-01T03:04:31.253Z,100115.66
2022-08-01T03:07:40.467Z,100104.53
2022-08-01T03:10:46.875Z,100103.75
2022-08-01T03:13:50.919Z,100095.31
2022-08-01T03:16:56.192Z,100095.50
2022-08-01T03:20:01.046Z,100082.91
2022-08-01T03:23:10.932Z,100076.31
2022-08-01T03:26:15.308Z,100069.56
2022-08-01T03:29:21.665Z,100059.44
2022-08-01T03:32:25.659Z,100065.00
2022-08-01T03:35:32.691Z,100070.66
2022-08-01T03:38:40.062Z,100077.56
2022-08-01T03:41:45.669Z,100080.56
2022-08-01T03:44:55.220Z,100067.09
2022-08-01T03:48:03.669Z,100057.16
2022-08-01T03:51:08.216Z,100057.13
2022-08-01T03:54:13.074Z,100039.72
2022-08-01T03:57:20.205Z,100036.78
2022-08-01T04:00:41.791Z,100045.44
2022-08-01T04:03:46.419Z,100037.88
2022-08-01T04:06:55.559Z,100026.44
2022-08-01T04:09:59.574Z,100030.03
2022-08-01T04:13:04.259Z,100030.03
2022-08-01T04:16:08.413Z,100038.97
2022-08-01T04:19:12.697Z,100039.22
2022-08-01T04:22:17.591Z,100041.78
2022-08-01T04:25:29.343Z,100026.44
2022-08-01T04:28:38.169Z,99997.03
2022-08-01T04:31:44.254Z,99998.00
2022-08-01T04:34:48.969Z,100001.06
2022-08-01T04:37:53.723Z,100004.09
2022-08-01T04:40:58.781Z,100009.44
2022-08-01T04:44:04.739Z,100022.16
2022-08-01T04:47:09.735Z,100024.31
2022-08-01T04:50:13.623Z,100017.44
2022-08-01T04:53:19.233Z,100024.28
2022-08-01T04:56:23.513Z,100024.72
2022-08-01T04:59:43.287Z,100012.88
2022-08-01T05:02:48.408Z,100008.28
2022-08-01T05:05:52.468Z,100016.75
2022-08-01T05:08:56.277Z,100014.91
2022-08-01T05:12:00.635Z,100003.84
2022-08-01T05:15:05.379Z,99984.78
2022-08-01T05:18:09.590Z,99971.50
2022-08-01T05:21:13.895Z,99963.56
2022-08-01T05:24:17.770Z,99959.75
2022-08-01T05:27:21.977Z,99963.84
2022-08-01T05:30:25.982Z,99973.59
2022-08-01T05:33:30.323Z,99976.91
2022-08-01T05:36:34.198Z,99983.63
2022-08-01T05:39:38.354Z,99991.56
2022-08-01T05:42:42.632Z,99999.28
2022-08-01T05:45:47.660Z,99996.75
2022-08-01T05:48:52.560Z,100011.03
2022-08-01T05:51:58.026Z,99998.22
2022-08-01T05:55:01.967Z,99989.28
2022-08-01T05:58:06.241Z,99994.72
2022-08-01T06:01:10.673Z,99992.47
2022-08-01T06:04:15.202Z,99982.81
2022-08-01T06:07:19.294Z,99983.38
2022-08-01T06:10:23.315Z,99969.06
2022-08-01T06:13:27.347Z,99980.25
2022-08-01T06:16:31.534Z,99978.38
2022-08-01T06:19:35.396Z,99978.44
2022-08-01T06:22:40.158Z,99973.28
2022-08-01T06:25:45.113Z,99970.31
2022-08-01T06:28:49.259Z,99978.78
2022-08-01T06:31:53.285Z,99971.22
2022-08-01T06:34:57.653Z,99965.53
2022-08-01T06:38:01.588Z,99962.81
2022-08-01T06:41:05.547Z,99969.25
2022-08-01T06:44:09.764Z,99970.00
2022-08-01T06:47:13.524Z,99985.19
2022-08-01T06:50:17.372Z,100012.13
2022-08-01T06:53:24.667Z,100026.13
2022-08-01T06:56:28.631Z,100018.34
2022-08-01T06:59:32.454Z,99985.91
2022-08-01T07:02:38.091Z,99958.91
2022-08-01T07:05:41.767Z,99963.47
2022-08-01T07:08:45.907Z,99988.31
2022-08-01T07:11:50.311Z,99986.59
2022-08-01T07:14:54.351Z,99971.91
2022-08-01T07:17:58.895Z,99946.88
2022-08-01T07:21:04.753Z,99929.00
2022-08-01T07:24:15.122Z,99937.44
2022-08-01T07:27:23.024Z,99927.31
2022-08-01T07:30:28.484Z,99929.88
2022-08-01T07:33:48.762Z,99923.03
2022-08-01T07:36:54.171Z,99930.47
2022-08-01T07:39:58.251Z,99918.31
2022-08-01T07:43:02.539Z,99921.75
2022-08-01T07:46:06.687Z,99927.63
2022-08-01T07:49:10.888Z,99930.78
2022-08-01T07:52:15.323Z,99924.41
2022-08-01T07:55:19.420Z,99918.97
2022-08-01T07:58:23.523Z,99918.97
2022-08-01T08:01:28.656Z,99912.53
2022-08-01T08:04:32.630Z,99906.66
2022-08-01T08:07:36.622Z,99901.34
2022-08-01T08:10:40.474Z,99909.38
2022-08-01T08:13:45.521Z,99920.94
2022-08-01T08:16:49.972Z,99926.34
2022-08-01T08:19:53.987Z,99925.47
2022-08-01T08:22:59.912Z,99923.06
2022-08-01T08:26:03.806Z,99907.34
2022-08-01T08:29:08.362Z,99907.03
2022-08-01T08:32:12.910Z,99916.59
2022-08-01T08:35:23.331Z,99911.75
2022-08-01T08:38:40.952Z,99898.19
2022-08-01T08:41:45.564Z,99894.59
2022-08-01T08:44:56.238Z,99902.31
2022-08-01T08:48:00.844Z,99913.88
2022-08-01T08:51:05.289Z,99900.25
2022-08-01T08:54:09.476Z,99905.66
2022-08-01T08:57:15.605Z,99911.69
2022-08-01T09:00:19.768Z,99919.00
2022-08-01T09:03:23.415Z,99928.16
2022-08-01T09:06:27.660Z,99933.28
2022-08-01T09:09:31.463Z,99945.56
2022-08-01T09:12:36.873Z,99941.97
2022-08-01T09:15:45.935Z,99938.13
2022-08-01T09:18:53.417Z,99928.25
2022-08-01T09:21:59.299Z,99927.56
2022-08-01T09:25:07.578Z,99923.13
2022-08-01T09:28:12.047Z,99923.25
2022-08-01T09:31:18.233Z,99907.97
2022-08-01T09:34:29.499Z,99917.44
2022-08-01T09:37:37.016Z,99926.75
2022-08-01T09:41:09.278Z,99931.72
2022-08-01T09:44:13.094Z,99930.97
2022-08-01T09:47:18.432Z,99925.97
2022-08-01T09:50:40.392Z,99937.94
2022-08-01T09:53:51.382Z,99951.41
2022-08-01T09:57:09.203Z,99941.66
2022-08-01T10:00:43.761Z,99932.09
2022-08-01T10:03:44.075Z,99935.09
2022-08-01T10:06:51.366Z,99929.09
2022-08-01T10:09:55.502Z,99930.97
2022-08-01T10:13:00.903Z,99934.84
2022-08-01T10:16:05.848Z,99940.13
2022-08-01T10:19:11.354Z,99929.41
2022-08-01T10:22:20.730Z,99932.28
2022-08-01T10:25:42.585Z,99935.28
2022-08-01T10:28:50.349Z,99934.59
2022-08-01T10:31:54.563Z,99934.19
2022-08-01T10:35:06.889Z,99933.72
2022-08-01T10:38:13.851Z,99928.59
2022-08-01T10:41:20.776Z,99924.63
2022-08-01T10:44:26.390Z,99942.06
2022-08-01T10:47:50.550Z,99939.78
2022-08-01T10:50:56.422Z,99931.66
2022-08-01T10:54:07.444Z,99938.34
2022-08-01T10:57:14.217Z,99942.50
2022-08-01T11:00:23.773Z,99951.19
2022-08-01T11:03:56.873Z,99950.38
2022-08-01T11:07:07.333Z,99952.91
2022-08-01T11:10:17.417Z,99954.66
2022-08-01T11:13:41.678Z,99958.38
2022-08-01T11:16:46.562Z,99962.38
2022-08-01T11:20:06.759Z,99956.22
2022-08-01T11:23:14.499Z,99945.09
2022-08-01T11:26:29.432Z,99940.66
2022-08-01T11:29:34.033Z,99946.34
2022-08-01T11:33:12.143Z,99955.03
2022-08-01T11:36:22.254Z,99959.63
2022-08-01T11:39:36.774Z,99954.31
2022-08-01T11:42:42.833Z,99963.91
2022-08-01T11:45:54.651Z,99958.31
2022-08-01T11:49:18.011Z,99954.63
2022-08-01T11:52:27.602Z,99954.78
2022-08-01T11:55:32.508Z,99957.31
2022-08-01T11:58:36.478Z,99945.19
2022-08-01T12:01:40.517Z,99961.75
2022-08-01T12:05:05.490Z,99959.75
2022-08-01T12:08:12.405Z,99962.47
2022-08-01T12:11:16.537Z,99955.31
2022-08-01T12:14:21.695Z,99968.63
2022-08-01T12:17:39.834Z,99967.75
2022-08-01T12:20:56.913Z,99975.47
2022-08-01T12:24:04.864Z,99976.47
2022-08-01T12:27:11.497Z,99979.47
2022-08-01T12:30:16.827Z,99970.59
2022-08-01T12:33:22.355Z,99969.72
2022-08-01T12:36:30.914Z,99963.75
2022-08-01T12:39:35.451Z,99964.56
2022-08-01T12:42:41.443Z,99957.16
2022-08-01T12:45:56.615Z,99956.44
2022-08-01T12:49:01.336Z,99964.31
2022-08-01T12:52:09.144Z,99958.28
2022-08-01T12:55:19.500Z,99961.28
2022-08-01T12:58:23.795Z,99959.97
2022-08-01T13:01:29.025Z,99958.53
2022-08-01T13:04:33.182Z,99955.56
2022-08-01T13:07:45.680Z,99947.56
2022-08-01T13:10:51.132Z,99948.66
2022-08-01T13:13:55.623Z,99964.22
2022-08-01T13:16:59.752Z,99959.91
2022-08-01T13:20:03.968Z,99960.47
2022-08-01T13:23:23.453Z,99959.44
2022-08-01T13:26:52.005Z,99964.41
2022-08-01T13:29:56.480Z,99958.72
2022-08-01T13:33:00.865Z,99948.31
2022-08-01T13:36:04.946Z,99945.16
2022-08-01T13:39:28.134Z,99949.44
2022-08-01T13:42:32.173Z,99947.16
2022-08-01T13:45:36.688Z,99949.41
2022-08-01T13:48:41.050Z,99957.81
2022-08-01T13:51:45.579Z,99956.94
2022-08-01T13:54:49.329Z,99954.53
2022-08-01T13:57:55.004Z,99959.22
2022-08-01T14:00:59.319Z,99960.34
2022-08-01T14:04:04.439Z,99955.63
2022-08-01T14:07:14.189Z,99965.47
2022-08-01T14:10:20.674Z,99965.63
2022-08-01T14:13:25.150Z,99958.81
2022-08-01T14:16:34.228Z,99956.13
2022-08-01T14:19:41.235Z,99957.66
2022-08-01T14:22:47.149Z,99953.53
2022-08-01T14:26:03.286Z,99965.91
2022-08-01T14:29:09.927Z,99971.97
2022-08-01T14:32:14.357Z,99967.22
2022-08-01T14:35:18.372Z,99953.41
2022-08-01T14:38:32.418Z,99964.75
2022-08-01T14:41:38.023Z,99959.75
2022-08-01T14:44:49.723Z,99952.72
2022-08-01T14:47:53.945Z,99950.81
2022-08-01T14:50:58.221Z,99944.56
2022-08-01T14:54:02.461Z,99954.66
2022-08-01T14:57:08.225Z,99960.56
2022-08-01T15:00:14.682Z,99968.56
2022-08-01T15:03:18.393Z,99973.16
2022-08-01T15:06:22.172Z,99978.56
2022-08-01T15:09:28.531Z,99973.53
2022-08-01T15:12:49.579Z,99973.16
2022-08-01T15:15:54.092Z,99988.94
2022-08-01T15:18:57.974Z,99990.31
2022-08-01T15:22:02.282Z,99988.34
2022-08-01T15:25:06.789Z,99999.66
2022-08-01T15:28:11.424Z,99999.78
2022-08-01T15:31:15.341Z,99999.78
2022-08-01T15:34:19.373Z,100002.84
2022-08-01T15:37:23.348Z,100004.13
2022-08-01T15:40:28.425Z,100012.94
2022-08-01T15:43:32.846Z,100012.94
2022-08-01T15:46:36.629Z,100028.59
2022-08-01T15:49:41.605Z,100030.44
2022-08-01T15:52:45.353Z,100028.00
2022-08-01T15:55:52.523Z,100034.28
2022-08-01T15:58:57.085Z,100039.16
2022-08-01T16:02:01.888Z,100041.47
2022-08-01T16:05:06.112Z,100039.16
2022-08-01T16:08:10.420Z,100043.66
2022-08-01T16:11:14.484Z,100046.63
2022-08-01T16:14:18.566Z,100049.06
2022-08-01T16:17:22.883Z,100050.06
2022-08-01T16:20:26.860Z,100045.16
2022-08-01T16:23:31.112Z,100037.22
2022-08-01T16:26:34.969Z,100054.88
2022-08-01T16:29:39.289Z,100056.88
2022-08-01T16:32:45.561Z,100049.97
2022-08-01T16:35:55.891Z,100047.16
2022-08-01T16:39:00.665Z,100048.03
2022-08-01T16:42:04.311Z,100061.19
2022-08-01T16:45:08.799Z,100064.66
2022-08-01T16:48:19.311Z,100074.00
2022-08-01T16:51:24.749Z,100075.09
2022-08-01T16:54:29.063Z,100074.97
2022-08-01T16:57:37.834Z,100078.78
2022-08-01T17:00:45.344Z,100079.28
2022-08-01T17:04:02.001Z,100074.47
2022-08-01T17:07:06.694Z,100080.13
2022-08-01T17:10:12.499Z,100084.81
2022-08-01T17:13:16.277Z,100085.44
2022-08-01T17:16:20.426Z,100093.53
2022-08-01T17:19:26.901Z,100094.28
2022-08-01T17:22:37.422Z,100092.66
2022-08-01T17:25:41.610Z,100094.13
2022-08-01T17:28:45.656Z,100093.38
2022-08-01T17:31:49.855Z,100091.66
2022-08-01T17:34:53.469Z,100100.13
2022-08-01T17:37:57.417Z,100095.22
2022-08-01T17:41:01.384Z,100093.03
2022-08-01T17:44:05.665Z,100092.75
2022-08-01T17:47:10.092Z,100104.06
2022-08-01T17:50:14.293Z,100106.44
2022-08-01T17:53:21.281Z,100104.72
2022-08-01T17:56:25.970Z,100105.91
2022-08-01T17:59:30.029Z,100098.44
2022-08-01T18:02:33.828Z,100108.88
2022-08-01T18:05:39.257Z,100111.81
2022-08-01T18:08:43.502Z,100100.28
2022-08-01T18:11:48.600Z,100094.88
2022-08-01T18:14:53.103Z,100102.97
2022-08-01T18:17:58.660Z,100096.84
2022-08-01T18:21:03.348Z,100106.91
2022-08-01T18:24:07.925Z,100104.06
2022-08-01T18:27:11.841Z,100101.03
2022-08-01T18:30:16.062Z,100099.78
2022-08-01T18:33:19.890Z,100094.28
2022-08-01T18:36:33.313Z,100099.44
2022-08-01T18:39:38.173Z,100092.91
2022-08-01T18:42:43.286Z,100090.09
2022-08-01T18:45:47.169Z,100102.03
2022-08-01T18:48:51.375Z,100104.84
2022-08-01T18:51:55.164Z,100115.88
2022-08-01T18:54:58.984Z,100123.00
2022-08-01T18:58:03.241Z,100128.41
2022-08-01T21:23:54.733Z,100235.81
2022-08-01T21:26:58.869Z,100241.34
2022-08-01T21:30:09.503Z,100253.84
2022-08-01T21:33:13.948Z,100256.91
2022-08-01T21:36:19.509Z,100261.75
2022-08-01T21:39:23.602Z,100269.50
2022-08-01T21:42:29.477Z,100283.31
2022-08-01T21:45:33.861Z,100286.50
2022-08-01T21:48:38.769Z,100277.84
2022-08-01T21:51:53.689Z,100277.50
2022-08-01T21:55:15.467Z,100278.09
2022-08-01T21:58:32.766Z,100280.28
2022-08-01T22:01:51.566Z,100276.78
2022-08-01T22:05:07.586Z,100278.78
2022-08-01T22:08:11.870Z,100282.94
2022-08-01T22:11:19.583Z,100284.19
2022-08-01T22:14:25.149Z,100283.84
2022-08-01T22:17:29.438Z,100286.38
2022-08-01T22:20:33.455Z,100290.28
2022-08-01T22:23:37.832Z,100292.78
2022-08-01T22:26:42.520Z,100286.84
2022-08-01T22:29:47.764Z,100292.06
2022-08-01T22:33:15.123Z,100292.50
2022-08-01T22:36:15.531Z,100291.25
2022-08-01T22:39:19.560Z,100289.88
2022-08-01T22:42:27.124Z,100297.84
2022-08-01T22:45:31.352Z,100300.84
2022-08-01T22:48:45.435Z,100315.00
2022-08-01T22:51:54.690Z,100321.50
2022-08-01T22:55:05.645Z,100316.94
2022-08-01T22:58:12.303Z,100322.38
2022-08-01T23:01:22.272Z,100332.81
2022-08-01T23:04:34.055Z,100334.56
2022-08-01T23:07:42.351Z,100338.88
2022-08-01T23:10:47.116Z,100333.06
2022-08-01T23:13:52.668Z,100327.91
2022-08-01T23:16:58.419Z,100324.44
2022-08-01T23:20:04.230Z,100321.19
2022-08-01T23:23:09.062Z,100324.44
2022-08-01T23:26:13.005Z,100328.41
2022-08-01T23:29:19.177Z,100321.13
2022-08-01T23:32:23.852Z,100327.28
2022-08-01T23:35:28.491Z,100311.28
2022-08-01T23:38:32.548Z,100303.00
2022-08-01T23:41:57.202Z,100308.13
2022-08-01T23:45:01.056Z,100304.88
2022-08-01T23:48:07.611Z,100305.28
2022-08-01T23:51:23.945Z,100301.84
2022-08-01T23:54:29.704Z,100310.50
2022-08-01T23:57:41.260Z,100311.63
